Pagina principale
METAR-TAF:

METAR-TAF

Aeroporti :

Aeroporto di Belgrado-Nikola Tesla

Belgrado, Serbia

latitudine: 44-49N, longitudine: 020-17E, altezza: 96 m

Osservazione

Il bollettino è stato emesso 37 minuti fa, alle 01:30 UTC
Vento 3 kt da sud-est
Temperature 15°C
Umidità 77%
Pressione 1015 hPa
Visibilità 10 km o più
nessuna nube inferiore a 1500 m e nessun cumulonembo

METAR: LYBE 280130Z 14003KT CAVOK 15/11 Q1015 NOSIG

Ora: 04:07 (02:07 UTC)

Previsione

Il bollettino è stato emesso 3 ore e 7 minuti fa, alle 23:00 UTC
Previsione valida dal 28 alle 00 UTC al 28 alle 24 UTC
Vento 4 kt da nord-est
Visibilità 10 km o più
nessuna nube inferiore a 1500 m e nessun cumulonembo
Temporaneamente
dal 28 alle 02 UTC al 28 alle 05 UTC
Visibilità: 3000 m
foschia,

TAF: LYBE 272300Z 2800/2824 04004KT CAVOK TX27/2813Z TN12/2803Z TEMPO 2802/2805 3000 BR

Osservazioni e previsioni meteorologiche di più di 4000 aeroporti (messaggi METAR e TAF).

Le stazioni disponibili sono rappresentate dai dischi gialli e rossi sulla carta.

Puntare il mouse per vedere il nome della stazione.

Clicca sopra per visualizzare le osservazioni e previsioni meteorologiche.

Per cambiare la mappa : fare clic sui pulsanti verdi con una croce nera per ingrandire, il pulsante verde con un trattino per diminuire, o sulla freccia verde per le mappe adiacenti.


METAR-TAF: